createdAt,value
2017-10-30T00:00:03.878Z,1
2017-10-30T00:05:02.788Z,2
2017-10-30T00:10:03.498Z,2
2017-10-30T00:15:03.163Z,2
2017-10-30T00:20:02.587Z,3
2017-10-30T00:25:03.033Z,2
2017-10-30T00:30:03.485Z,2
2017-10-30T00:35:02.868Z,3
2017-10-30T00:40:03.462Z,2
2017-10-30T00:45:02.896Z,2
2017-10-30T00:50:03.557Z,3
2017-10-30T00:55:02.954Z,2
2017-10-30T01:00:03.605Z,2
2017-10-30T01:05:03.517Z,3
2017-10-30T01:10:03.197Z,3
2017-10-30T01:15:03.557Z,0
2017-10-30T01:20:03.193Z,3
2017-10-30T01:25:02.771Z,4
2017-10-30T01:30:03.342Z,3
2017-10-30T01:35:02.792Z,3
2017-10-30T01:40:03.370Z,4
2017-10-30T01:45:02.839Z,2
2017-10-30T01:50:03.277Z,2
2017-10-30T01:55:02.836Z,2
2017-10-30T02:00:03.367Z,2
2017-10-30T02:05:02.862Z,4
2017-10-30T02:10:03.356Z,4
2017-10-30T02:15:02.950Z,4
2017-10-30T02:20:02.584Z,4
2017-10-30T02:25:03.046Z,4
2017-10-30T02:30:02.712Z,5
2017-10-30T02:35:03.095Z,3
2017-10-30T02:40:02.771Z,4
2017-10-30T02:45:03.265Z,2
2017-10-30T02:50:02.654Z,3
2017-10-30T02:55:03.188Z,4
2017-10-30T03:00:02.648Z,2
2017-10-30T03:05:03.195Z,4
2017-10-30T03:10:02.913Z,4
2017-10-30T03:15:03.416Z,4
2017-10-30T03:20:02.943Z,3
2017-10-30T03:25:02.672Z,2
2017-10-30T03:30:03.069Z,3
2017-10-30T03:35:03.450Z,2
2017-10-30T03:40:03.051Z,2
2017-10-30T03:45:03.566Z,2
2017-10-30T03:50:03.153Z,3
2017-10-30T03:55:02.656Z,4
2017-10-30T04:00:03.131Z,3
2017-10-30T04:05:02.738Z,1
2017-10-30T04:10:03.291Z,2
2017-10-30T04:15:02.711Z,0
2017-10-30T04:20:03.120Z,1
2017-10-30T04:25:02.678Z,2
2017-10-30T04:30:03.116Z,3
2017-10-30T04:35:03.563Z,2
2017-10-30T04:40:03.166Z,0
2017-10-30T04:45:02.736Z,2
2017-10-30T04:50:03.285Z,3
2017-10-30T04:55:02.713Z,1
2017-10-30T05:00:03.170Z,3
2017-10-30T05:05:02.717Z,3
2017-10-30T05:10:03.096Z,4
2017-10-30T05:15:02.689Z,2
2017-10-30T05:20:03.347Z,2
2017-10-30T05:25:02.716Z,2
2017-10-30T05:30:03.534Z,2
2017-10-30T05:35:02.885Z,2
2017-10-30T05:40:03.522Z,4
2017-10-30T05:45:03.209Z,2
2017-10-30T05:50:02.611Z,3
2017-10-30T05:55:03.161Z,0
2017-10-30T06:00:02.759Z,4
2017-10-30T06:05:03.294Z,2
2017-10-30T06:10:02.641Z,3
2017-10-30T06:15:02.976Z,3
2017-10-30T06:20:03.396Z,0
2017-10-30T06:25:02.732Z,2
2017-10-30T06:30:03.208Z,1
2017-10-30T06:35:02.763Z,1
2017-10-30T06:40:03.340Z,2
2017-10-30T06:45:02.709Z,2
2017-10-30T06:50:03.281Z,1
2017-10-30T06:55:02.779Z,0
2017-10-30T07:00:03.294Z,2
2017-10-30T07:05:02.878Z,2
2017-10-30T07:10:03.500Z,2
2017-10-30T07:15:03.052Z,0
2017-10-30T07:20:03.582Z,2
2017-10-30T07:25:02.951Z,2
2017-10-30T07:30:03.372Z,2
2017-10-30T07:35:02.812Z,2
2017-10-30T07:40:03.263Z,3
2017-10-30T07:45:02.832Z,2
2017-10-30T07:50:03.427Z,3
2017-10-30T07:55:02.900Z,4
2017-10-30T08:00:03.286Z,3
2017-10-30T08:05:02.606Z,5
2017-10-30T08:10:03.134Z,0
2017-10-30T08:15:02.733Z,0
2017-10-30T08:20:03.342Z,0
2017-10-30T08:25:03.022Z,0
2017-10-30T08:30:02.626Z,0
2017-10-30T08:35:03.305Z,3
2017-10-30T08:40:02.671Z,0
2017-10-30T08:45:03.207Z,1
2017-10-30T08:50:02.810Z,2
2017-10-30T08:55:03.346Z,1
2017-10-30T09:00:02.682Z,4
2017-10-30T09:05:03.271Z,2
2017-10-30T09:10:02.693Z,3
2017-10-30T09:15:03.187Z,3
2017-10-30T09:20:02.753Z,3
2017-10-30T09:25:03.054Z,1
2017-10-30T09:30:03.421Z,3
2017-10-30T09:35:03.009Z,0
2017-10-30T09:40:03.499Z,0
2017-10-30T09:45:02.945Z,2
2017-10-30T09:50:03.509Z,1
2017-10-30T09:55:03.068Z,3
2017-10-30T10:00:03.481Z,0
2017-10-30T10:05:02.923Z,0
2017-10-30T10:10:03.545Z,0
2017-10-30T10:15:02.872Z,0
2017-10-30T10:20:03.445Z,0
2017-10-30T10:25:03.020Z,0
2017-10-30T10:30:02.584Z,0
2017-10-30T10:35:03.200Z,0
2017-10-30T10:40:02.864Z,0
2017-10-30T10:45:03.372Z,1
2017-10-30T10:50:02.754Z,0
2017-10-30T10:55:03.281Z,0
2017-10-30T11:00:02.797Z,0
2017-10-30T11:05:03.234Z,0
2017-10-30T11:10:02.869Z,3
2017-10-30T11:15:03.386Z,2
2017-10-30T11:20:02.759Z,4
2017-10-30T11:25:03.220Z,3
2017-10-30T11:30:02.649Z,1
2017-10-30T11:35:03.246Z,2
2017-10-30T11:40:02.854Z,2
2017-10-30T11:50:03.127Z,3
2017-10-30T12:00:03.231Z,8
2017-10-30T12:05:02.690Z,3
2017-10-30T12:10:03.267Z,5
2017-10-30T12:15:02.640Z,7
2017-10-30T12:20:03.146Z,3
2017-10-30T12:25:02.686Z,3
2017-10-30T12:30:03.321Z,2
2017-10-30T12:35:02.886Z,3
2017-10-30T12:40:03.389Z,4
2017-10-30T12:45:02.851Z,4
2017-10-30T12:50:03.361Z,2
2017-10-30T12:55:02.953Z,5
2017-10-30T13:00:03.537Z,0
2017-10-30T13:05:02.913Z,1
2017-10-30T13:10:02.627Z,2
2017-10-30T13:15:03.166Z,2
2017-10-30T13:20:02.649Z,0
2017-10-30T13:25:03.101Z,1
2017-10-30T13:30:02.737Z,0
2017-10-30T13:35:03.241Z,2
2017-10-30T13:40:02.696Z,2
2017-10-30T13:45:03.273Z,7
2017-10-30T13:50:02.712Z,5
2017-10-30T13:55:03.317Z,2
2017-10-30T14:00:02.661Z,2
2017-10-30T14:05:03.285Z,2
2017-10-30T14:10:02.774Z,5
2017-10-30T14:15:03.339Z,2
2017-10-30T14:20:02.865Z,5
2017-10-30T14:25:03.447Z,6
2017-10-30T14:30:02.835Z,3
2017-10-30T14:35:03.472Z,5
2017-10-30T14:40:03.154Z,0
2017-10-30T14:45:02.741Z,0
2017-10-30T14:50:03.297Z,0
2017-10-30T14:55:02.786Z,5
2017-10-30T15:00:03.173Z,5
2017-10-30T15:05:02.862Z,3
2017-10-30T15:10:03.394Z,0
2017-10-30T15:15:03.022Z,2
2017-10-30T15:20:02.636Z,0
2017-10-30T15:25:03.061Z,0
2017-10-30T15:30:02.683Z,1
2017-10-30T15:35:03.186Z,1
2017-10-30T15:40:02.729Z,0
2017-10-30T15:45:03.157Z,0
2017-10-30T15:50:02.603Z,0
2017-10-30T15:55:02.990Z,0
2017-10-30T16:00:02.649Z,0
2017-10-30T16:05:03.167Z,1
2017-10-30T16:10:02.596Z,0
2017-10-30T16:15:03.144Z,0
2017-10-30T16:20:02.810Z,0
2017-10-30T16:25:03.419Z,0
2017-10-30T16:30:03.046Z,0
2017-10-30T16:35:03.349Z,0
2017-10-30T16:40:02.716Z,0
2017-10-30T16:45:03.178Z,1
2017-10-30T16:55:03.376Z,0
2017-10-30T17:00:02.914Z,0
2017-10-30T17:05:03.549Z,0
2017-10-30T17:10:03.243Z,0
2017-10-30T17:15:02.836Z,0
2017-10-30T17:20:03.248Z,0
2017-10-30T17:25:02.598Z,2
2017-10-30T17:30:03.278Z,0
2017-10-30T17:35:02.765Z,0
2017-10-30T17:40:03.357Z,0
2017-10-30T17:45:02.836Z,0
2017-10-30T17:50:03.225Z,0
2017-10-30T17:55:02.810Z,0
2017-10-30T18:00:03.197Z,2
2017-10-30T18:05:02.772Z,2
2017-10-30T18:10:03.208Z,0
2017-10-30T18:15:02.855Z,0
2017-10-30T18:20:03.329Z,0
2017-10-30T18:25:02.736Z,0
2017-10-30T18:30:03.172Z,0
2017-10-30T18:35:02.714Z,0
2017-10-30T18:40:03.206Z,2
2017-10-30T18:45:02.808Z,0
2017-10-30T18:50:03.375Z,0
2017-10-30T18:55:02.931Z,0
2017-10-30T19:00:03.295Z,0
2017-10-30T19:05:02.895Z,0
2017-10-30T19:10:03.321Z,1
2017-10-30T19:15:02.676Z,1
2017-10-30T19:20:03.186Z,1
2017-10-30T19:25:02.721Z,0
2017-10-30T19:30:03.085Z,0
2017-10-30T19:35:02.968Z,0
2017-10-30T19:40:03.383Z,0
2017-10-30T19:45:02.863Z,0
2017-10-30T19:50:03.508Z,0
2017-10-30T19:55:03.068Z,0
2017-10-30T20:00:03.518Z,0
2017-10-30T20:05:03.100Z,0
2017-10-30T20:10:03.540Z,0
2017-10-30T20:15:02.903Z,0
2017-10-30T20:20:03.361Z,0
2017-10-30T20:25:02.765Z,0
2017-10-30T20:30:03.329Z,0
2017-10-30T20:35:02.698Z,0
2017-10-30T20:40:03.288Z,0
2017-10-30T20:45:02.686Z,0
2017-10-30T20:50:03.288Z,0
2017-10-30T20:55:02.649Z,0
2017-10-30T21:00:03.142Z,0
2017-10-30T21:05:02.728Z,0
2017-10-30T21:10:03.370Z,0
2017-10-30T21:15:02.815Z,0
2017-10-30T21:20:03.481Z,0
2017-10-30T21:25:02.891Z,0
2017-10-30T21:30:03.334Z,0
2017-10-30T21:35:02.868Z,0
2017-10-30T21:40:03.519Z,0
2017-10-30T21:45:03.179Z,0
2017-10-30T21:50:03.566Z,0
2017-10-30T21:55:03.087Z,0
2017-10-30T22:00:02.614Z,0
2017-10-30T22:05:03.053Z,0
2017-10-30T22:10:03.595Z,0
2017-10-30T22:15:03.227Z,0
2017-10-30T22:20:02.667Z,0
2017-10-30T22:25:03.247Z,1
2017-10-30T22:30:02.939Z,0
2017-10-30T22:35:03.368Z,0
2017-10-30T22:40:02.969Z,0
2017-10-30T22:45:03.307Z,0
2017-10-30T22:50:02.829Z,0
2017-10-30T22:55:03.380Z,0
2017-10-30T23:00:02.776Z,0
2017-10-30T23:05:03.243Z,0
2017-10-30T23:10:02.739Z,0
2017-10-30T23:15:03.168Z,0
2017-10-30T23:20:02.768Z,0
2017-10-30T23:25:03.427Z,0
2017-10-30T23:30:03.028Z,0
2017-10-30T23:35:03.441Z,0
2017-10-30T23:40:03.008Z,0
2017-10-30T23:45:03.380Z,0
2017-10-30T23:50:02.980Z,0
2017-10-30T23:55:03.342Z,0
